sensor_id;sensor_type;location;lat;lon;timestamp;P1;durP1;ratioP1;P2;durP2;ratioP2
9005;SDS011;62284;50.702;7.140;2022-08-01T00:02:17;1.67;;;1.48;;
9005;SDS011;62284;50.702;7.140;2022-08-01T00:04:44;0.98;;;0.98;;
9005;SDS011;62284;50.702;7.140;2022-08-01T00:07:11;1.20;;;1.10;;
9005;SDS011;62284;50.702;7.140;2022-08-01T00:09:38;1.20;;;1.20;;
9005;SDS011;62284;50.702;7.140;2022-08-01T00:12:05;1.30;;;1.20;;
9005;SDS011;62284;50.702;7.140;2022-08-01T00:14:32;1.27;;;1.10;;
9005;SDS011;62284;50.702;7.140;2022-08-01T00:16:59;1.92;;;1.42;;
9005;SDS011;62284;50.702;7.140;2022-08-01T00:19:27;1.83;;;1.70;;
9005;SDS011;62284;50.702;7.140;2022-08-01T00:21:54;1.52;;;1.42;;
9005;SDS011;62284;50.702;7.140;2022-08-01T00:24:21;1.23;;;1.15;;
9005;SDS011;62284;50.702;7.140;2022-08-01T00:26:48;1.40;;;1.30;;
9005;SDS011;62284;50.702;7.140;2022-08-01T00:29:15;1.95;;;1.17;;
9005;SDS011;62284;50.702;7.140;2022-08-01T00:31:42;1.15;;;1.02;;
9005;SDS011;62284;50.702;7.140;2022-08-01T00:34:08;0.90;;;0.90;;
9005;SDS011;62284;50.702;7.140;2022-08-01T00:36:37;2.10;;;1.40;;
9005;SDS011;62284;50.702;7.140;2022-08-01T00:39:04;1.25;;;1.15;;
9005;SDS011;62284;50.702;7.140;2022-08-01T00:41:30;1.48;;;1.38;;
9005;SDS011;62284;50.702;7.140;2022-08-01T00:43:57;1.15;;;1.13;;
9005;SDS011;62284;50.702;7.140;2022-08-01T00:46:24;1.30;;;1.30;;
9005;SDS011;62284;50.702;7.140;2022-08-01T00:48:51;1.65;;;1.25;;
9005;SDS011;62284;50.702;7.140;2022-08-01T00:51:18;1.48;;;1.10;;
9005;SDS011;62284;50.702;7.140;2022-08-01T00:53:46;1.25;;;1.20;;
9005;SDS011;62284;50.702;7.140;2022-08-01T00:56:13;0.95;;;0.90;;
9005;SDS011;62284;50.702;7.140;2022-08-01T00:58:40;0.93;;;0.93;;
9005;SDS011;62284;50.702;7.140;2022-08-01T01:01:07;1.42;;;1.33;;
9005;SDS011;62284;50.702;7.140;2022-08-01T01:03:34;2.15;;;1.23;;
9005;SDS011;62284;50.702;7.140;2022-08-01T01:06:05;1.40;;;1.30;;
9005;SDS011;62284;50.702;7.140;2022-08-01T01:08:39;1.10;;;1.10;;
9005;SDS011;62284;50.702;7.140;2022-08-01T01:11:17;1.48;;;1.25;;
9005;SDS011;62284;50.702;7.140;2022-08-01T01:13:52;1.60;;;1.20;;
9005;SDS011;62284;50.702;7.140;2022-08-01T01:16:23;1.55;;;1.05;;
9005;SDS011;62284;50.702;7.140;2022-08-01T01:18:53;1.50;;;1.45;;
9005;SDS011;62284;50.702;7.140;2022-08-01T01:21:42;1.52;;;1.42;;
9005;SDS011;62284;50.702;7.140;2022-08-01T01:24:26;3.60;;;1.67;;
9005;SDS011;62284;50.702;7.140;2022-08-01T01:27:05;1.35;;;1.20;;
9005;SDS011;62284;50.702;7.140;2022-08-01T01:29:42;1.38;;;1.27;;
9005;SDS011;62284;50.702;7.140;2022-08-01T01:32:13;1.13;;;1.05;;
9005;SDS011;62284;50.702;7.140;2022-08-01T01:34:45;1.60;;;1.40;;
9005;SDS011;62284;50.702;7.140;2022-08-01T01:37:16;1.75;;;1.20;;
9005;SDS011;62284;50.702;7.140;2022-08-01T01:39:45;1.83;;;1.58;;
9005;SDS011;62284;50.702;7.140;2022-08-01T01:42:14;1.55;;;1.48;;
9005;SDS011;62284;50.702;7.140;2022-08-01T01:44:45;1.45;;;1.35;;
9005;SDS011;62284;50.702;7.140;2022-08-01T01:47:13;1.35;;;1.15;;
9005;SDS011;62284;50.702;7.140;2022-08-01T01:49:43;1.52;;;1.42;;
9005;SDS011;62284;50.702;7.140;2022-08-01T01:52:12;1.98;;;1.55;;
9005;SDS011;62284;50.702;7.140;2022-08-01T01:54:42;1.50;;;1.45;;
9005;SDS011;62284;50.702;7.140;2022-08-01T01:57:12;1.38;;;1.25;;
9005;SDS011;62284;50.702;7.140;2022-08-01T01:59:42;1.45;;;1.40;;
9005;SDS011;62284;50.702;7.140;2022-08-01T02:02:12;1.73;;;1.30;;
9005;SDS011;62284;50.702;7.140;2022-08-01T02:04:42;1.83;;;1.70;;
9005;SDS011;62284;50.702;7.140;2022-08-01T02:07:12;1.55;;;1.45;;
9005;SDS011;62284;50.702;7.140;2022-08-01T02:09:42;3.15;;;1.77;;
9005;SDS011;62284;50.702;7.140;2022-08-01T02:12:10;1.40;;;1.30;;
9005;SDS011;62284;50.702;7.140;2022-08-01T02:14:38;1.65;;;1.15;;
9005;SDS011;62284;50.702;7.140;2022-08-01T02:17:08;1.42;;;1.33;;
9005;SDS011;62284;50.702;7.140;2022-08-01T02:19:36;1.08;;;1.08;;
9005;SDS011;62284;50.702;7.140;2022-08-01T02:22:04;1.48;;;1.38;;
9005;SDS011;62284;50.702;7.140;2022-08-01T02:24:35;1.95;;;1.45;;
9005;SDS011;62284;50.702;7.140;2022-08-01T02:27:06;1.60;;;1.40;;
9005;SDS011;62284;50.702;7.140;2022-08-01T02:29:37;1.55;;;1.45;;
9005;SDS011;62284;50.702;7.140;2022-08-01T02:32:08;1.80;;;1.40;;
9005;SDS011;62284;50.702;7.140;2022-08-01T02:34:40;1.83;;;1.73;;
9005;SDS011;62284;50.702;7.140;2022-08-01T02:37:12;1.80;;;1.25;;
9005;SDS011;62284;50.702;7.140;2022-08-01T02:39:40;1.70;;;1.55;;
9005;SDS011;62284;50.702;7.140;2022-08-01T02:42:08;1.90;;;1.80;;
9005;SDS011;62284;50.702;7.140;2022-08-01T02:44:39;2.00;;;1.90;;
9005;SDS011;62284;50.702;7.140;2022-08-01T02:47:10;2.45;;;1.90;;
9005;SDS011;62284;50.702;7.140;2022-08-01T02:49:41;1.55;;;1.45;;
9005;SDS011;62284;50.702;7.140;2022-08-01T02:52:11;2.72;;;1.67;;
9005;SDS011;62284;50.702;7.140;2022-08-01T02:54:40;2.35;;;2.15;;
9005;SDS011;62284;50.702;7.140;2022-08-01T02:57:10;1.80;;;1.67;;
9005;SDS011;62284;50.702;7.140;2022-08-01T02:59:38;2.35;;;1.67;;
9005;SDS011;62284;50.702;7.140;2022-08-01T03:02:06;2.22;;;1.83;;
9005;SDS011;62284;50.702;7.140;2022-08-01T03:04:36;1.77;;;1.67;;
9005;SDS011;62284;50.702;7.140;2022-08-01T03:07:06;1.90;;;1.80;;
9005;SDS011;62284;50.702;7.140;2022-08-01T03:09:35;2.08;;;1.60;;
9005;SDS011;62284;50.702;7.140;2022-08-01T03:12:06;2.30;;;1.50;;
9005;SDS011;62284;50.702;7.140;2022-08-01T03:14:36;1.30;;;1.30;;
9005;SDS011;62284;50.702;7.140;2022-08-01T03:17:05;1.95;;;1.75;;
9005;SDS011;62284;50.702;7.140;2022-08-01T03:19:36;1.65;;;1.55;;
9005;SDS011;62284;50.702;7.140;2022-08-01T03:22:05;1.83;;;1.52;;
9005;SDS011;62284;50.702;7.140;2022-08-01T03:24:34;2.15;;;1.95;;
9005;SDS011;62284;50.702;7.140;2022-08-01T03:27:04;2.38;;;2.17;;
9005;SDS011;62284;50.702;7.140;2022-08-01T03:29:33;1.95;;;1.75;;
9005;SDS011;62284;50.702;7.140;2022-08-01T03:32:02;1.80;;;1.70;;
9005;SDS011;62284;50.702;7.140;2022-08-01T03:34:30;1.95;;;1.73;;
9005;SDS011;62284;50.702;7.140;2022-08-01T03:37:00;3.28;;;2.10;;
9005;SDS011;62284;50.702;7.140;2022-08-01T03:39:33;1.77;;;1.67;;
9005;SDS011;62284;50.702;7.140;2022-08-01T03:42:05;2.55;;;1.75;;
9005;SDS011;62284;50.702;7.140;2022-08-01T03:44:36;1.85;;;1.75;;
9005;SDS011;62284;50.702;7.140;2022-08-01T03:47:07;1.88;;;1.77;;
9005;SDS011;62284;50.702;7.140;2022-08-01T03:49:35;2.03;;;1.92;;
9005;SDS011;62284;50.702;7.140;2022-08-01T03:52:05;2.05;;;1.88;;
9005;SDS011;62284;50.702;7.140;2022-08-01T03:54:35;1.77;;;1.67;;
9005;SDS011;62284;50.702;7.140;2022-08-01T03:57:06;1.70;;;1.50;;
9005;SDS011;62284;50.702;7.140;2022-08-01T03:59:34;3.35;;;1.92;;
9005;SDS011;62284;50.702;7.140;2022-08-01T04:02:03;2.25;;;1.90;;
9005;SDS011;62284;50.702;7.140;2022-08-01T04:04:31;2.08;;;1.90;;
9005;SDS011;62284;50.702;7.140;2022-08-01T04:06:59;2.97;;;2.42;;
9005;SDS011;62284;50.702;7.140;2022-08-01T04:09:30;2.53;;;2.15;;
9005;SDS011;62284;50.702;7.140;2022-08-01T04:11:58;2.22;;;2.08;;
9005;SDS011;62284;50.702;7.140;2022-08-01T04:14:26;2.38;;;2.17;;
9005;SDS011;62284;50.702;7.140;2022-08-01T04:16:53;2.75;;;2.45;;
9005;SDS011;62284;50.702;7.140;2022-08-01T04:19:20;2.70;;;2.50;;
9005;SDS011;62284;50.702;7.140;2022-08-01T04:21:47;2.60;;;2.13;;
9005;SDS011;62284;50.702;7.140;2022-08-01T04:24:16;2.80;;;2.58;;
9005;SDS011;62284;50.702;7.140;2022-08-01T04:26:46;3.13;;;2.58;;
9005;SDS011;62284;50.702;7.140;2022-08-01T04:29:16;2.97;;;2.67;;
9005;SDS011;62284;50.702;7.140;2022-08-01T04:31:46;2.80;;;2.60;;
9005;SDS011;62284;50.702;7.140;2022-08-01T04:34:16;2.85;;;2.65;;
9005;SDS011;62284;50.702;7.140;2022-08-01T04:36:49;2.90;;;2.70;;
9005;SDS011;62284;50.702;7.140;2022-08-01T04:39:18;2.72;;;2.33;;
9005;SDS011;62284;50.702;7.140;2022-08-01T04:41:48;3.25;;;2.70;;
9005;SDS011;62284;50.702;7.140;2022-08-01T04:44:15;2.92;;;2.78;;
9005;SDS011;62284;50.702;7.140;2022-08-01T04:46:42;3.50;;;3.22;;
9005;SDS011;62284;50.702;7.140;2022-08-01T04:49:13;2.90;;;2.70;;
9005;SDS011;62284;50.702;7.140;2022-08-01T04:51:49;3.63;;;3.33;;
9005;SDS011;62284;50.702;7.140;2022-08-01T04:54:17;3.08;;;2.70;;
9005;SDS011;62284;50.702;7.140;2022-08-01T04:56:47;3.40;;;3.10;;
9005;SDS011;62284;50.702;7.140;2022-08-01T04:59:14;2.95;;;2.72;;
9005;SDS011;62284;50.702;7.140;2022-08-01T05:01:58;3.05;;;2.80;;
9005;SDS011;62284;50.702;7.140;2022-08-01T05:04:25;3.25;;;3.05;;
9005;SDS011;62284;50.702;7.140;2022-08-01T05:06:52;3.25;;;2.67;;
9005;SDS011;62284;50.702;7.140;2022-08-01T05:09:19;3.13;;;2.83;;
9005;SDS011;62284;50.702;7.140;2022-08-01T05:11:47;3.00;;;2.80;;
9005;SDS011;62284;50.702;7.140;2022-08-01T05:14:14;3.38;;;3.05;;
9005;SDS011;62284;50.702;7.140;2022-08-01T05:16:41;3.10;;;2.90;;
9005;SDS011;62284;50.702;7.140;2022-08-01T05:19:08;4.07;;;3.78;;
9005;SDS011;62284;50.702;7.140;2022-08-01T05:21:35;3.42;;;3.17;;
9005;SDS011;62284;50.702;7.140;2022-08-01T05:24:02;3.35;;;3.10;;
9005;SDS011;62284;50.702;7.140;2022-08-01T05:26:30;3.92;;;3.63;;
9005;SDS011;62284;50.702;7.140;2022-08-01T05:28:59;3.72;;;3.42;;
9005;SDS011;62284;50.702;7.140;2022-08-01T05:31:26;4.32;;;3.60;;
9005;SDS011;62284;50.702;7.140;2022-08-01T05:33:53;3.40;;;3.10;;
9005;SDS011;62284;50.702;7.140;2022-08-01T05:36:20;4.28;;;3.88;;
9005;SDS011;62284;50.702;7.140;2022-08-01T05:38:47;4.78;;;3.60;;
9005;SDS011;62284;50.702;7.140;2022-08-01T05:41:14;3.85;;;3.55;;
9005;SDS011;62284;50.702;7.140;2022-08-01T05:43:41;4.32;;;3.53;;
9005;SDS011;62284;50.702;7.140;2022-08-01T05:46:09;5.00;;;4.05;;
9005;SDS011;62284;50.702;7.140;2022-08-01T05:48:36;4.60;;;4.20;;
9005;SDS011;62284;50.702;7.140;2022-08-01T05:51:03;4.07;;;3.78;;
9005;SDS011;62284;50.702;7.140;2022-08-01T05:53:30;4.38;;;3.97;;
9005;SDS011;62284;50.702;7.140;2022-08-01T05:55:59;4.10;;;3.80;;
9005;SDS011;62284;50.702;7.140;2022-08-01T05:58:26;5.05;;;4.55;;
9005;SDS011;62284;50.702;7.140;2022-08-01T06:00:53;4.25;;;3.90;;
9005;SDS011;62284;50.702;7.140;2022-08-01T06:03:21;4.43;;;4.03;;
9005;SDS011;62284;50.702;7.140;2022-08-01T06:05:48;4.40;;;4.00;;
9005;SDS011;62284;50.702;7.140;2022-08-01T06:08:15;4.15;;;3.83;;
9005;SDS011;62284;50.702;7.140;2022-08-01T06:10:42;5.07;;;4.57;;
9005;SDS011;62284;50.702;7.140;2022-08-01T06:13:09;4.50;;;4.10;;
9005;SDS011;62284;50.702;7.140;2022-08-01T06:15:35;4.22;;;3.90;;
9005;SDS011;62284;50.702;7.140;2022-08-01T06:18:02;4.25;;;3.85;;
9005;SDS011;62284;50.702;7.140;2022-08-01T06:20:31;5.53;;;3.95;;
9005;SDS011;62284;50.702;7.140;2022-08-01T06:22:58;5.68;;;4.97;;
9005;SDS011;62284;50.702;7.140;2022-08-01T06:25:25;3.85;;;3.55;;
9005;SDS011;62284;50.702;7.140;2022-08-01T06:27:52;5.07;;;3.60;;
9005;SDS011;62284;50.702;7.140;2022-08-01T06:30:19;5.80;;;4.60;;
9005;SDS011;62284;50.702;7.140;2022-08-01T06:32:46;4.70;;;4.30;;
9005;SDS011;62284;50.702;7.140;2022-08-01T06:35:13;4.93;;;4.53;;
9005;SDS011;62284;50.702;7.140;2022-08-01T06:37:41;5.40;;;4.90;;
9005;SDS011;62284;50.702;7.140;2022-08-01T06:40:10;5.30;;;4.57;;
9005;SDS011;62284;50.702;7.140;2022-08-01T06:42:37;4.85;;;4.30;;
9005;SDS011;62284;50.702;7.140;2022-08-01T06:45:05;5.20;;;4.70;;
9005;SDS011;62284;50.702;7.140;2022-08-01T06:47:33;5.88;;;5.10;;
9005;SDS011;62284;50.702;7.140;2022-08-01T06:50:00;5.70;;;5.20;;
9005;SDS011;62284;50.702;7.140;2022-08-01T06:52:27;5.43;;;5.00;;
9005;SDS011;62284;50.702;7.140;2022-08-01T06:54:55;4.90;;;4.40;;
9005;SDS011;62284;50.702;7.140;2022-08-01T06:57:22;5.82;;;5.03;;
9005;SDS011;62284;50.702;7.140;2022-08-01T06:59:49;6.15;;;5.45;;
9005;SDS011;62284;50.702;7.140;2022-08-01T07:02:16;5.68;;;5.13;;
9005;SDS011;62284;50.702;7.140;2022-08-01T07:04:43;5.68;;;5.18;;
9005;SDS011;62284;50.702;7.140;2022-08-01T07:07:10;5.20;;;4.70;;
9005;SDS011;62284;50.702;7.140;2022-08-01T07:09:37;6.07;;;4.97;;
9005;SDS011;62284;50.702;7.140;2022-08-01T07:12:07;4.95;;;4.35;;
9005;SDS011;62284;50.702;7.140;2022-08-01T07:14:35;5.35;;;4.85;;
9005;SDS011;62284;50.702;7.140;2022-08-01T07:17:02;5.80;;;5.30;;
9005;SDS011;62284;50.702;7.140;2022-08-01T07:19:29;5.57;;;5.07;;
9005;SDS011;62284;50.702;7.140;2022-08-01T07:21:55;8.23;;;5.20;;
9005;SDS011;62284;50.702;7.140;2022-08-01T07:24:22;6.40;;;4.85;;
9005;SDS011;62284;50.702;7.140;2022-08-01T07:26:49;5.45;;;5.03;;
9005;SDS011;62284;50.702;7.140;2022-08-01T07:29:17;5.25;;;4.75;;
9005;SDS011;62284;50.702;7.140;2022-08-01T07:31:44;5.82;;;5.32;;
9005;SDS011;62284;50.702;7.140;2022-08-01T07:34:11;5.45;;;5.05;;
9005;SDS011;62284;50.702;7.140;2022-08-01T07:36:38;7.10;;;6.13;;
9005;SDS011;62284;50.702;7.140;2022-08-01T07:39:05;6.70;;;6.00;;
9005;SDS011;62284;50.702;7.140;2022-08-01T07:41:32;6.32;;;5.60;;
9005;SDS011;62284;50.702;7.140;2022-08-01T07:43:58;6.32;;;5.72;;
9005;SDS011;62284;50.702;7.140;2022-08-01T07:46:27;5.93;;;5.43;;
9005;SDS011;62284;50.702;7.140;2022-08-01T07:48:55;5.50;;;5.03;;
9005;SDS011;62284;50.702;7.140;2022-08-01T07:51:22;5.40;;;5.00;;
9005;SDS011;62284;50.702;7.140;2022-08-01T07:53:49;4.93;;;4.53;;
9005;SDS011;62284;50.702;7.140;2022-08-01T07:56:16;5.35;;;4.80;;
9005;SDS011;62284;50.702;7.140;2022-08-01T07:58:43;6.13;;;5.53;;
9005;SDS011;62284;50.702;7.140;2022-08-01T08:01:11;5.60;;;5.20;;
9005;SDS011;62284;50.702;7.140;2022-08-01T08:03:39;6.05;;;5.55;;
9005;SDS011;62284;50.702;7.140;2022-08-01T08:06:06;5.03;;;4.63;;
9005;SDS011;62284;50.702;7.140;2022-08-01T08:08:33;5.25;;;4.75;;
9005;SDS011;62284;50.702;7.140;2022-08-01T08:11:00;5.57;;;4.97;;
9005;SDS011;62284;50.702;7.140;2022-08-01T08:13:27;5.30;;;4.80;;
9005;SDS011;62284;50.702;7.140;2022-08-01T08:15:54;5.13;;;4.68;;
9005;SDS011;62284;50.702;7.140;2022-08-01T08:18:23;5.38;;;4.97;;
9005;SDS011;62284;50.702;7.140;2022-08-01T08:20:51;4.95;;;4.45;;
9005;SDS011;62284;50.702;7.140;2022-08-01T08:23:18;5.22;;;4.82;;
9005;SDS011;62284;50.702;7.140;2022-08-01T08:26:02;5.07;;;4.60;;
9005;SDS011;62284;50.702;7.140;2022-08-01T08:28:29;4.38;;;4.07;;
9005;SDS011;62284;50.702;7.140;2022-08-01T08:30:56;4.95;;;4.55;;
9005;SDS011;62284;50.702;7.140;2022-08-01T08:33:23;5.18;;;4.07;;
9005;SDS011;62284;50.702;7.140;2022-08-01T08:35:50;5.20;;;4.05;;
9005;SDS011;62284;50.702;7.140;2022-08-01T08:38:19;4.63;;;3.95;;
9005;SDS011;62284;50.702;7.140;2022-08-01T08:40:46;4.68;;;4.20;;
9005;SDS011;62284;50.702;7.140;2022-08-01T08:43:14;3.65;;;3.35;;
9005;SDS011;62284;50.702;7.140;2022-08-01T08:45:42;3.95;;;3.65;;
9005;SDS011;62284;50.702;7.140;2022-08-01T08:48:11;3.88;;;3.58;;
9005;SDS011;62284;50.702;7.140;2022-08-01T08:50:39;3.83;;;3.53;;
9005;SDS011;62284;50.702;7.140;2022-08-01T08:53:09;3.50;;;3.30;;
9005;SDS011;62284;50.702;7.140;2022-08-01T08:55:36;3.80;;;3.50;;
9005;SDS011;62284;50.702;7.140;2022-08-01T08:58:03;3.53;;;3.20;;
9005;SDS011;62284;50.702;7.140;2022-08-01T09:00:31;3.90;;;3.60;;
9005;SDS011;62284;50.702;7.140;2022-08-01T09:02:59;3.50;;;3.20;;
9005;SDS011;62284;50.702;7.140;2022-08-01T09:05:26;3.25;;;3.05;;
9005;SDS011;62284;50.702;7.140;2022-08-01T09:07:53;3.13;;;2.92;;
9005;SDS011;62284;50.702;7.140;2022-08-01T09:10:21;3.50;;;3.20;;
9005;SDS011;62284;50.702;7.140;2022-08-01T09:13:07;4.22;;;3.03;;
9005;SDS011;62284;50.702;7.140;2022-08-01T09:15:39;4.00;;;3.60;;
9005;SDS011;62284;50.702;7.140;2022-08-01T09:18:07;3.92;;;3.60;;
9005;SDS011;62284;50.702;7.140;2022-08-01T09:20:34;3.92;;;3.60;;
9005;SDS011;62284;50.702;7.140;2022-08-01T09:23:01;3.72;;;3.40;;
9005;SDS011;62284;50.702;7.140;2022-08-01T09:25:30;3.33;;;3.13;;
9005;SDS011;62284;50.702;7.140;2022-08-01T09:28:17;3.55;;;3.25;;
9005;SDS011;62284;50.702;7.140;2022-08-01T09:30:52;3.17;;;2.97;;
9005;SDS011;62284;50.702;7.140;2022-08-01T09:33:21;3.25;;;3.05;;
9005;SDS011;62284;50.702;7.140;2022-08-01T09:35:53;3.88;;;3.58;;
9005;SDS011;62284;50.702;7.140;2022-08-01T09:38:22;3.30;;;3.10;;
9005;SDS011;62284;50.702;7.140;2022-08-01T09:40:53;3.40;;;3.10;;
9005;SDS011;62284;50.702;7.140;2022-08-01T09:43:22;3.58;;;3.28;;
9005;SDS011;62284;50.702;7.140;2022-08-01T09:45:50;3.10;;;2.90;;
9005;SDS011;62284;50.702;7.140;2022-08-01T09:48:18;3.55;;;3.20;;
9005;SDS011;62284;50.702;7.140;2022-08-01T09:50:46;3.30;;;3.00;;
9005;SDS011;62284;50.702;7.140;2022-08-01T09:53:15;3.20;;;2.90;;
9005;SDS011;62284;50.702;7.140;2022-08-01T09:55:45;3.20;;;2.90;;
9005;SDS011;62284;50.702;7.140;2022-08-01T09:58:13;4.30;;;3.30;;
9005;SDS011;62284;50.702;7.140;2022-08-01T10:00:40;3.65;;;3.17;;
9005;SDS011;62284;50.702;7.140;2022-08-01T10:03:18;4.05;;;3.03;;
9005;SDS011;62284;50.702;7.140;2022-08-01T10:05:46;3.00;;;2.70;;
9005;SDS011;62284;50.702;7.140;2022-08-01T10:08:13;3.05;;;2.85;;
9005;SDS011;62284;50.702;7.140;2022-08-01T10:10:40;2.28;;;2.15;;
9005;SDS011;62284;50.702;7.140;2022-08-01T10:13:07;2.80;;;2.60;;
9005;SDS011;62284;50.702;7.140;2022-08-01T10:15:37;2.30;;;2.20;;
9005;SDS011;62284;50.702;7.140;2022-08-01T10:18:06;2.63;;;2.30;;
9005;SDS011;62284;50.702;7.140;2022-08-01T10:20:35;2.38;;;2.17;;
9005;SDS011;62284;50.702;7.140;2022-08-01T10:23:03;2.65;;;2.45;;
9005;SDS011;62284;50.702;7.140;2022-08-01T10:25:33;2.80;;;2.60;;
9005;SDS011;62284;50.702;7.140;2022-08-01T10:28:02;2.15;;;2.05;;
9005;SDS011;62284;50.702;7.140;2022-08-01T10:30:37;2.70;;;2.55;;
9005;SDS011;62284;50.702;7.140;2022-08-01T10:33:07;2.40;;;2.30;;
9005;SDS011;62284;50.702;7.140;2022-08-01T10:35:34;2.80;;;2.60;;
9005;SDS011;62284;50.702;7.140;2022-08-01T10:38:01;3.17;;;2.67;;
9005;SDS011;62284;50.702;7.140;2022-08-01T10:40:29;2.20;;;2.10;;
9005;SDS011;62284;50.702;7.140;2022-08-01T10:42:57;2.92;;;2.72;;
9005;SDS011;62284;50.702;7.140;2022-08-01T10:45:24;2.95;;;2.75;;
9005;SDS011;62284;50.702;7.140;2022-08-01T10:47:56;2.40;;;2.30;;
9005;SDS011;62284;50.702;7.140;2022-08-01T10:50:29;2.80;;;2.60;;
9005;SDS011;62284;50.702;7.140;2022-08-01T10:53:06;2.80;;;2.60;;
9005;SDS011;62284;50.702;7.140;2022-08-01T10:55:50;2.58;;;2.28;;
9005;SDS011;62284;50.702;7.140;2022-08-01T10:58:22;3.35;;;2.90;;
9005;SDS011;62284;50.702;7.140;2022-08-01T11:04:06;3.78;;;3.08;;
9005;SDS011;62284;50.702;7.140;2022-08-01T11:06:39;4.18;;;3.08;;
9005;SDS011;62284;50.702;7.140;2022-08-01T11:09:16;3.25;;;2.95;;
9005;SDS011;62284;50.702;7.140;2022-08-01T11:11:57;4.10;;;3.40;;
9005;SDS011;62284;50.702;7.140;2022-08-01T11:14:26;3.47;;;2.95;;
9005;SDS011;62284;50.702;7.140;2022-08-01T11:16:54;2.78;;;2.58;;
9005;SDS011;62284;50.702;7.140;2022-08-01T11:19:22;3.28;;;3.08;;
9005;SDS011;62284;50.702;7.140;2022-08-01T11:21:59;3.28;;;3.08;;
9005;SDS011;62284;50.702;7.140;2022-08-01T11:24:53;3.20;;;3.00;;
9005;SDS011;62284;50.702;7.140;2022-08-01T11:27:25;3.35;;;2.42;;
9005;SDS011;62284;50.702;7.140;2022-08-01T11:32:48;2.53;;;2.33;;
9005;SDS011;62284;50.702;7.140;2022-08-01T11:35:18;2.35;;;2.15;;
9005;SDS011;62284;50.702;7.140;2022-08-01T11:37:45;2.60;;;2.40;;
9005;SDS011;62284;50.702;7.140;2022-08-01T11:40:17;2.30;;;2.10;;
9005;SDS011;62284;50.702;7.140;2022-08-01T11:42:45;3.92;;;2.25;;
9005;SDS011;62284;50.702;7.140;2022-08-01T11:45:12;2.67;;;2.53;;
9005;SDS011;62284;50.702;7.140;2022-08-01T11:47:42;2.83;;;2.40;;
9005;SDS011;62284;50.702;7.140;2022-08-01T11:52:57;2.20;;;2.10;;
9005;SDS011;62284;50.702;7.140;2022-08-01T11:55:25;2.45;;;2.25;;
9005;SDS011;62284;50.702;7.140;2022-08-01T11:57:58;2.53;;;2.33;;
9005;SDS011;62284;50.702;7.140;2022-08-01T12:00:26;2.38;;;2.28;;
9005;SDS011;62284;50.702;7.140;2022-08-01T12:02:57;2.30;;;2.10;;
9005;SDS011;62284;50.702;7.140;2022-08-01T12:05:25;2.33;;;2.13;;
9005;SDS011;62284;50.702;7.140;2022-08-01T12:07:54;2.00;;;1.90;;
9005;SDS011;62284;50.702;7.140;2022-08-01T12:10:22;2.63;;;2.53;;
9005;SDS011;62284;50.702;7.140;2022-08-01T12:12:51;2.90;;;2.70;;
9005;SDS011;62284;50.702;7.140;2022-08-01T12:15:19;3.20;;;3.00;;
9005;SDS011;62284;50.702;7.140;2022-08-01T12:17:48;3.42;;;3.22;;
9005;SDS011;62284;50.702;7.140;2022-08-01T12:20:19;3.10;;;2.90;;
9005;SDS011;62284;50.702;7.140;2022-08-01T12:22:47;3.40;;;3.10;;
9005;SDS011;62284;50.702;7.140;2022-08-01T12:25:21;4.45;;;2.75;;
9005;SDS011;62284;50.702;7.140;2022-08-01T12:27:49;2.97;;;2.78;;
9005;SDS011;62284;50.702;7.140;2022-08-01T12:30:17;3.38;;;3.17;;
9005;SDS011;62284;50.702;7.140;2022-08-01T12:32:47;2.90;;;2.70;;
9005;SDS011;62284;50.702;7.140;2022-08-01T12:35:15;2.80;;;2.60;;
9005;SDS011;62284;50.702;7.140;2022-08-01T12:37:43;2.90;;;2.70;;
9005;SDS011;62284;50.702;7.140;2022-08-01T12:40:14;3.80;;;3.50;;
9005;SDS011;62284;50.702;7.140;2022-08-01T12:42:43;3.28;;;3.00;;
9005;SDS011;62284;50.702;7.140;2022-08-01T12:45:12;2.95;;;2.75;;
9005;SDS011;62284;50.702;7.140;2022-08-01T12:47:41;2.90;;;2.70;;
9005;SDS011;62284;50.702;7.140;2022-08-01T12:50:11;3.45;;;3.25;;
9005;SDS011;62284;50.702;7.140;2022-08-01T12:52:39;4.93;;;3.33;;
9005;SDS011;62284;50.702;7.140;2022-08-01T12:55:07;2.50;;;2.40;;
9005;SDS011;62284;50.702;7.140;2022-08-01T12:57:39;4.63;;;3.28;;
9005;SDS011;62284;50.702;7.140;2022-08-01T13:00:08;2.30;;;2.20;;
9005;SDS011;62284;50.702;7.140;2022-08-01T13:02:38;3.00;;;2.70;;
9005;SDS011;62284;50.702;7.140;2022-08-01T13:05:06;2.83;;;2.67;;
9005;SDS011;62284;50.702;7.140;2022-08-01T13:07:37;3.00;;;2.20;;
9005;SDS011;62284;50.702;7.140;2022-08-01T13:10:06;2.63;;;2.47;;
9005;SDS011;62284;50.702;7.140;2022-08-01T13:12:34;2.38;;;2.28;;
9005;SDS011;62284;50.702;7.140;2022-08-01T13:17:55;2.53;;;2.33;;
9005;SDS011;62284;50.702;7.140;2022-08-01T13:20:22;2.88;;;2.40;;
9005;SDS011;62284;50.702;7.140;2022-08-01T13:22:51;2.40;;;2.30;;
9005;SDS011;62284;50.702;7.140;2022-08-01T13:25:18;2.30;;;2.10;;
9005;SDS011;62284;50.702;7.140;2022-08-01T13:27:45;2.97;;;2.67;;
9005;SDS011;62284;50.702;7.140;2022-08-01T13:30:13;2.65;;;2.45;;
9005;SDS011;62284;50.702;7.140;2022-08-01T13:32:41;2.60;;;2.50;;
9005;SDS011;62284;50.702;7.140;2022-08-01T13:35:11;3.08;;;2.85;;
9005;SDS011;62284;50.702;7.140;2022-08-01T13:37:39;2.88;;;2.60;;
9005;SDS011;62284;50.702;7.140;2022-08-01T13:40:09;2.60;;;2.50;;
9005;SDS011;62284;50.702;7.140;2022-08-01T13:42:37;2.70;;;2.50;;
9005;SDS011;62284;50.702;7.140;2022-08-01T13:45:05;2.35;;;2.15;;
9005;SDS011;62284;50.702;7.140;2022-08-01T13:47:35;2.20;;;2.05;;
9005;SDS011;62284;50.702;7.140;2022-08-01T13:50:03;2.10;;;2.00;;
9005;SDS011;62284;50.702;7.140;2022-08-01T13:52:32;2.00;;;1.90;;
9005;SDS011;62284;50.702;7.140;2022-08-01T13:54:59;1.63;;;1.63;;
9005;SDS011;62284;50.702;7.140;2022-08-01T13:57:26;3.28;;;1.95;;
9005;SDS011;62284;50.702;7.140;2022-08-01T13:59:54;3.30;;;3.00;;
9005;SDS011;62284;50.702;7.140;2022-08-01T14:02:24;2.10;;;2.00;;
9005;SDS011;62284;50.702;7.140;2022-08-01T14:04:52;2.40;;;2.30;;
9005;SDS011;62284;50.702;7.140;2022-08-01T14:07:19;3.28;;;2.75;;
9005;SDS011;62284;50.702;7.140;2022-08-01T14:09:47;2.60;;;2.50;;
9005;SDS011;62284;50.702;7.140;2022-08-01T14:12:14;2.47;;;2.30;;
9005;SDS011;62284;50.702;7.140;2022-08-01T14:14:41;2.67;;;2.47;;
9005;SDS011;62284;50.702;7.140;2022-08-01T14:17:08;2.38;;;2.28;;
9005;SDS011;62284;50.702;7.140;2022-08-01T14:19:35;2.50;;;2.40;;
9005;SDS011;62284;50.702;7.140;2022-08-01T14:22:02;2.63;;;2.42;;
9005;SDS011;62284;50.702;7.140;2022-08-01T14:24:29;2.75;;;2.60;;
9005;SDS011;62284;50.702;7.140;2022-08-01T14:26:57;3.10;;;2.72;;
9005;SDS011;62284;50.702;7.140;2022-08-01T14:29:24;2.97;;;2.80;;
9005;SDS011;62284;50.702;7.140;2022-08-01T14:31:51;3.42;;;2.58;;
9005;SDS011;62284;50.702;7.140;2022-08-01T14:34:18;2.63;;;2.42;;
9005;SDS011;62284;50.702;7.140;2022-08-01T14:36:45;2.75;;;2.55;;
9005;SDS011;62284;50.702;7.140;2022-08-01T14:39:12;2.45;;;2.35;;
9005;SDS011;62284;50.702;7.140;2022-08-01T14:41:39;3.80;;;2.65;;
9005;SDS011;62284;50.702;7.140;2022-08-01T14:44:07;2.42;;;2.33;;
9005;SDS011;62284;50.702;7.140;2022-08-01T14:46:34;2.90;;;2.70;;
9005;SDS011;62284;50.702;7.140;2022-08-01T14:49:01;2.10;;;2.00;;
9005;SDS011;62284;50.702;7.140;2022-08-01T14:51:28;2.05;;;1.95;;
9005;SDS011;62284;50.702;7.140;2022-08-01T14:53:58;2.00;;;1.77;;
9005;SDS011;62284;50.702;7.140;2022-08-01T14:56:25;2.08;;;1.98;;
9005;SDS011;62284;50.702;7.140;2022-08-01T14:58:51;1.95;;;1.85;;
9005;SDS011;62284;50.702;7.140;2022-08-01T15:01:20;2.03;;;1.92;;
9005;SDS011;62284;50.702;7.140;2022-08-01T15:03:47;1.77;;;1.67;;
9005;SDS011;62284;50.702;7.140;2022-08-01T15:06:15;2.00;;;1.90;;
9005;SDS011;62284;50.702;7.140;2022-08-01T15:08:42;1.52;;;1.42;;
9005;SDS011;62284;50.702;7.140;2022-08-01T15:11:09;2.10;;;1.90;;
9005;SDS011;62284;50.702;7.140;2022-08-01T15:13:36;1.88;;;1.77;;
9005;SDS011;62284;50.702;7.140;2022-08-01T15:16:03;2.42;;;2.22;;
9005;SDS011;62284;50.702;7.140;2022-08-01T15:18:32;1.88;;;1.77;;
9005;SDS011;62284;50.702;7.140;2022-08-01T15:20:58;2.53;;;2.22;;
9005;SDS011;62284;50.702;7.140;2022-08-01T15:23:25;1.70;;;1.60;;